createdAt,value
2022-09-06T00:00:03.854Z,99315.13
2022-09-06T00:01:17.668Z,99314.66
2022-09-06T00:02:20.217Z,99318.59
2022-09-06T00:03:22.895Z,99314.16
2022-09-06T00:04:25.285Z,99308.00
2022-09-06T00:05:29.076Z,99312.25
2022-09-06T00:06:31.696Z,99301.53
2022-09-06T00:07:34.549Z,99309.25
2022-09-06T00:08:37.180Z,99309.16
2022-09-06T00:09:39.587Z,99304.38
2022-09-06T00:10:43.015Z,99311.38
2022-09-06T00:11:45.380Z,99303.94
2022-09-06T00:12:47.935Z,99303.13
2022-09-06T00:13:50.335Z,99310.00
2022-09-06T00:14:52.714Z,99298.31
2022-09-06T00:15:55.185Z,99305.22
2022-09-06T00:16:57.567Z,99298.00
2022-09-06T00:18:01.852Z,99303.94
2022-09-06T00:19:04.182Z,99304.81
2022-09-06T00:20:09.263Z,99307.66
2022-09-06T00:21:23.351Z,99301.94
2022-09-06T00:27:02.248Z,99304.97
2022-09-06T00:28:05.657Z,99299.75
2022-09-06T00:29:08.070Z,99302.41
2022-09-06T00:30:10.980Z,99297.31
2022-09-06T00:31:19.241Z,99303.69
2022-09-06T00:32:21.574Z,99303.81
2022-09-06T00:33:24.291Z,99306.78
2022-09-06T00:34:27.273Z,99308.38
2022-09-06T00:35:29.928Z,99311.47
2022-09-06T00:36:32.256Z,99305.38
2022-09-06T00:37:34.555Z,99314.28
2022-09-06T00:38:38.043Z,99313.56
2022-09-06T00:39:40.506Z,99311.19
2022-09-06T00:40:43.260Z,99302.75
2022-09-06T00:41:45.794Z,99305.16
2022-09-06T00:42:48.061Z,99309.22
2022-09-06T00:43:50.381Z,99307.75
2022-09-06T00:44:52.795Z,99302.97
2022-09-06T00:45:56.466Z,99313.56
2022-09-06T00:46:58.864Z,99312.94
2022-09-06T00:48:04.541Z,99316.13
2022-09-06T00:49:13.124Z,99308.16
2022-09-06T00:50:17.933Z,99306.47
2022-09-06T00:51:22.083Z,99306.38
2022-09-06T00:52:26.309Z,99309.44
2022-09-06T00:53:30.411Z,99299.69
2022-09-06T00:54:33.325Z,99302.44
2022-09-06T00:55:35.871Z,99296.50
2022-09-06T00:56:43.357Z,99302.44
2022-09-06T00:57:50.805Z,99294.38
2022-09-06T00:58:53.422Z,99295.94
2022-09-06T00:59:56.492Z,99297.44
2022-09-06T01:00:59.160Z,99298.91
2022-09-06T01:02:01.850Z,99298.28
2022-09-06T01:03:05.965Z,99308.50
2022-09-06T01:04:08.862Z,99301.28
2022-09-06T01:05:12.601Z,99306.38
2022-09-06T01:06:14.888Z,99304.47
2022-09-06T01:07:37.378Z,99309.38
2022-09-06T01:08:48.555Z,99313.63
2022-09-06T01:10:19.193Z,99299.19
2022-09-06T01:11:45.259Z,99311.06
2022-09-06T01:12:53.048Z,99316.03
2022-09-06T01:14:10.470Z,99317.78
2022-09-06T01:15:25.793Z,99323.38
2022-09-06T01:16:44.602Z,99319.84
2022-09-06T01:18:01.811Z,99330.34
2022-09-06T01:19:35.848Z,99327.88
2022-09-06T01:21:17.548Z,99330.22
2022-09-06T01:22:41.216Z,99338.22
2022-09-06T01:24:25.333Z,99352.03
2022-09-06T01:25:33.818Z,99350.97
2022-09-06T01:27:08.230Z,99352.66
2022-09-06T01:28:41.289Z,99360.13
2022-09-06T01:29:51.215Z,99358.50
2022-09-06T01:31:18.184Z,99369.31
2022-09-06T01:32:26.052Z,99380.53
2022-09-06T01:33:41.030Z,99403.44
2022-09-06T01:34:50.868Z,99437.69
2022-09-06T01:36:00.235Z,99452.88
2022-09-06T01:37:10.653Z,99461.25
2022-09-06T01:38:14.644Z,99469.34
2022-09-06T01:39:29.069Z,99456.25
2022-09-06T01:40:35.671Z,99451.72
2022-09-06T01:41:37.970Z,99449.06
2022-09-06T01:42:42.350Z,99463.19
2022-09-06T01:43:50.394Z,99469.13
2022-09-06T01:45:02.779Z,99472.56
2022-09-06T01:46:42.931Z,99480.63
2022-09-06T01:48:03.760Z,99488.72
2022-09-06T01:49:24.980Z,99487.66
2022-09-06T01:51:02.117Z,99486.59
2022-09-06T01:52:18.167Z,99484.78
2022-09-06T01:53:41.902Z,99480.19
2022-09-06T01:55:11.748Z,99502.41
2022-09-06T01:56:51.561Z,99503.91
2022-09-06T01:58:04.632Z,99502.00
2022-09-06T01:59:12.551Z,99500.59
2022-09-06T02:00:17.279Z,99491.22
2022-09-06T02:01:32.033Z,99499.44
2022-09-06T02:02:37.102Z,99497.28
2022-09-06T02:03:52.433Z,99508.44
2022-09-06T02:05:06.309Z,99511.88
2022-09-06T02:06:24.132Z,99505.25
2022-09-06T02:07:29.581Z,99507.06
2022-09-06T02:08:49.602Z,99496.81
2022-09-06T02:10:18.581Z,99509.59
2022-09-06T02:11:22.934Z,99514.06
2022-09-06T02:12:28.223Z,99526.84
2022-09-06T02:13:35.809Z,99529.63
2022-09-06T02:14:51.964Z,99538.22
2022-09-06T02:16:02.273Z,99538.69
2022-09-06T02:17:07.927Z,99531.47
2022-09-06T02:18:18.919Z,99511.97
2022-09-06T02:19:29.605Z,99502.50
2022-09-06T02:20:35.279Z,99486.66
2022-09-06T02:21:42.167Z,99471.31
2022-09-06T02:22:48.023Z,99456.50
2022-09-06T02:23:53.110Z,99434.00
2022-09-06T02:24:57.820Z,99406.94
2022-09-06T02:26:08.077Z,99408.19
2022-09-06T02:27:12.008Z,99404.06
2022-09-06T02:28:14.370Z,99399.31
2022-09-06T02:29:17.641Z,99398.69
2022-09-06T02:30:20.117Z,99402.63
2022-09-06T02:31:29.403Z,99392.19
2022-09-06T02:32:38.069Z,99389.00
2022-09-06T02:33:43.865Z,99394.75
2022-09-06T02:34:46.718Z,99395.34
2022-09-06T02:35:52.036Z,99396.22
2022-09-06T02:36:55.012Z,99390.28
2022-09-06T02:37:57.423Z,99387.72
2022-09-06T02:39:01.219Z,99388.91
2022-09-06T02:40:04.575Z,99385.00
2022-09-06T02:41:07.764Z,99391.03
2022-09-06T02:42:12.943Z,99396.03
2022-09-06T02:43:15.346Z,99394.22
2022-09-06T02:44:17.870Z,99394.53
2022-09-06T02:45:20.192Z,99396.75
2022-09-06T02:46:24.312Z,99412.25
2022-09-06T02:47:26.655Z,99409.28
2022-09-06T02:48:29.102Z,99405.66
2022-09-06T02:49:31.607Z,99405.44
2022-09-06T02:50:33.943Z,99399.97
2022-09-06T02:51:39.829Z,99411.97
2022-09-06T02:52:42.198Z,99401.00
2022-09-06T02:53:44.493Z,99407.91
2022-09-06T02:54:47.048Z,99402.16
2022-09-06T02:55:49.340Z,99409.16
2022-09-06T02:56:52.616Z,99406.94
2022-09-06T02:57:54.970Z,99416.72
2022-09-06T02:58:57.332Z,99424.09
2022-09-06T02:59:59.588Z,99438.94
2022-09-06T03:01:02.129Z,99446.19
2022-09-06T03:02:04.461Z,99441.53
2022-09-06T03:03:07.233Z,99436.16
2022-09-06T03:04:09.585Z,99431.09
2022-09-06T03:05:11.877Z,99415.56
2022-09-06T03:06:14.194Z,99403.03
2022-09-06T03:07:16.475Z,99394.75
2022-09-06T03:08:20.478Z,99389.56
2022-09-06T03:09:22.839Z,99377.22
2022-09-06T03:10:26.441Z,99362.34
2022-09-06T03:11:28.796Z,99364.59
2022-09-06T03:12:31.109Z,99355.56
2022-09-06T03:13:33.415Z,99355.03
2022-09-06T03:14:36.084Z,99347.28
2022-09-06T03:15:38.405Z,99355.66
2022-09-06T03:16:40.834Z,99362.47
2022-09-06T03:17:44.024Z,99354.84
2022-09-06T03:18:46.925Z,99356.09
2022-09-06T03:19:49.382Z,99363.13
2022-09-06T03:20:53.361Z,99365.88
2022-09-06T03:21:55.675Z,99365.03
2022-09-06T03:22:57.980Z,99362.59
2022-09-06T03:24:00.318Z,99365.75
2022-09-06T03:25:02.720Z,99355.78
2022-09-06T03:26:05.890Z,99349.94
2022-09-06T03:27:08.214Z,99346.31
2022-09-06T03:28:10.576Z,99344.19
2022-09-06T03:29:13.138Z,99345.69
2022-09-06T03:30:15.452Z,99342.50
2022-09-06T03:31:17.800Z,99346.94
2022-09-06T03:32:20.228Z,99334.84
2022-09-06T03:33:22.778Z,99339.75
2022-09-06T03:34:25.385Z,99332.28
2022-09-06T03:35:27.736Z,99333.78
2022-09-06T03:36:30.056Z,99333.47
2022-09-06T03:37:32.855Z,99326.66
2022-09-06T03:38:35.168Z,99329.94
2022-09-06T03:39:37.699Z,99334.53
2022-09-06T03:40:40.023Z,99335.69
2022-09-06T03:41:42.417Z,99345.50
2022-09-06T03:42:46.477Z,99332.53
2022-09-06T03:43:48.823Z,99343.78
2022-09-06T03:44:51.339Z,99332.16
2022-09-06T03:45:57.087Z,99327.16
2022-09-06T03:46:59.549Z,99330.34
2022-09-06T03:48:01.976Z,99327.03
2022-09-06T03:49:04.315Z,99318.63
2022-09-06T03:50:07.559Z,99304.16
2022-09-06T03:51:09.880Z,99307.78
2022-09-06T03:52:12.196Z,99304.84
2022-09-06T03:53:15.623Z,99297.81
2022-09-06T03:54:17.960Z,99298.78
2022-09-06T03:55:20.416Z,99299.19
2022-09-06T03:56:22.722Z,99304.72
2022-09-06T03:57:25.052Z,99295.50
2022-09-06T03:58:31.832Z,99304.97
2022-09-06T03:59:34.132Z,99300.19
2022-09-06T04:00:36.508Z,99292.13
2022-09-06T04:01:38.861Z,99287.97
2022-09-06T04:02:41.337Z,99283.53
2022-09-06T04:03:43.686Z,99290.13
2022-09-06T04:04:46.356Z,99296.16
2022-09-06T04:05:48.713Z,99294.25
2022-09-06T04:06:50.993Z,99294.34
2022-09-06T04:07:53.337Z,99303.91
2022-09-06T04:08:55.781Z,99299.97
2022-09-06T04:09:58.019Z,99297.88
2022-09-06T04:11:00.331Z,99295.19
2022-09-06T04:12:02.943Z,99296.56
2022-09-06T04:13:05.208Z,99296.34
2022-09-06T04:14:07.484Z,99297.50
2022-09-06T04:15:10.130Z,99293.56
2022-09-06T04:16:12.797Z,99300.03
2022-09-06T04:17:15.289Z,99296.13
2022-09-06T04:18:17.897Z,99293.78
2022-09-06T04:19:20.333Z,99294.31
2022-09-06T04:20:22.659Z,99294.66
2022-09-06T04:21:25.019Z,99297.63
2022-09-06T04:22:27.340Z,99297.53
2022-09-06T04:23:29.839Z,99295.84
2022-09-06T04:24:32.931Z,99289.47
2022-09-06T04:25:35.267Z,99294.84
2022-09-06T04:26:37.699Z,99285.94
2022-09-06T04:27:39.968Z,99287.53
2022-09-06T04:28:42.228Z,99284.44
2022-09-06T04:29:44.610Z,99276.06
2022-09-06T04:31:04.546Z,99283.78
2022-09-06T04:32:07.655Z,99276.69
2022-09-06T04:33:10.040Z,99277.56
2022-09-06T04:34:12.367Z,99282.44
2022-09-06T04:35:14.779Z,99279.47
2022-09-06T04:36:17.134Z,99274.06
2022-09-06T04:37:20.096Z,99286.38
2022-09-06T04:38:24.080Z,99275.31
2022-09-06T04:39:26.462Z,99283.19
2022-09-06T04:40:28.838Z,99284.56
2022-09-06T04:41:31.153Z,99279.91
2022-09-06T04:42:33.731Z,99288.91
2022-09-06T04:43:36.167Z,99284.69
2022-09-06T04:44:38.638Z,99280.41
2022-09-06T04:45:42.151Z,99271.72
2022-09-06T04:46:44.809Z,99282.13
2022-09-06T04:47:47.343Z,99275.50
2022-09-06T04:48:50.069Z,99273.59
2022-09-06T04:49:53.627Z,99274.53
2022-09-06T04:50:56.187Z,99274.19
2022-09-06T04:51:58.533Z,99266.41
2022-09-06T04:53:00.884Z,99275.97
2022-09-06T04:54:04.497Z,99274.19
2022-09-06T04:55:08.505Z,99273.72
2022-09-06T04:56:16.882Z,99275.53
2022-09-06T04:57:19.313Z,99265.25
2022-09-06T04:58:21.673Z,99262.63
2022-09-06T04:59:24.256Z,99265.69
2022-09-06T05:00:27.587Z,99262.66
2022-09-06T05:01:30.025Z,99259.44
2022-09-06T05:02:32.603Z,99254.28
2022-09-06T05:03:35.145Z,99260.06
2022-09-06T05:04:37.534Z,99246.38
2022-09-06T05:05:39.893Z,99250.41
2022-09-06T05:06:42.944Z,99250.97
2022-09-06T05:07:45.355Z,99255.28
2022-09-06T05:08:48.524Z,99243.25
2022-09-06T05:09:50.912Z,99235.72
2022-09-06T05:10:53.238Z,99244.88
2022-09-06T05:11:56.180Z,99245.19
2022-09-06T05:12:58.514Z,99243.19
2022-09-06T05:14:00.919Z,99245.59
2022-09-06T05:15:03.338Z,99246.16
2022-09-06T05:16:07.586Z,99244.78
2022-09-06T05:17:10.129Z,99246.38
2022-09-06T05:18:16.032Z,99243.63
2022-09-06T05:19:19.171Z,99250.00
2022-09-06T05:20:21.662Z,99250.31
2022-09-06T05:21:24.030Z,99246.06
2022-09-06T05:22:26.440Z,99252.66
2022-09-06T05:23:29.372Z,99248.44
2022-09-06T05:24:31.724Z,99244.19
2022-09-06T05:25:34.046Z,99247.25
2022-09-06T05:26:36.447Z,99258.88
2022-09-06T05:27:38.783Z,99260.00
2022-09-06T05:28:41.286Z,99271.38
2022-09-06T05:29:43.732Z,99293.66
2022-09-06T05:30:46.945Z,99296.53
2022-09-06T05:31:49.425Z,99305.06
2022-09-06T05:32:52.010Z,99315.25
2022-09-06T05:33:55.207Z,99315.09
2022-09-06T05:34:57.595Z,99324.03
2022-09-06T05:36:00.191Z,99316.78
2022-09-06T05:37:02.625Z,99315.97
2022-09-06T05:38:05.371Z,99322.34
2022-09-06T05:39:07.842Z,99326.22
2022-09-06T05:40:11.437Z,99324.66
2022-09-06T05:41:13.764Z,99330.72
2022-09-06T05:42:19.250Z,99324.66
2022-09-06T05:43:21.865Z,99326.22
2022-09-06T05:44:24.595Z,99336.75
2022-09-06T05:45:26.925Z,99325.31
2022-09-06T05:46:29.409Z,99336.31
2022-09-06T05:47:35.272Z,99330.09
2022-09-06T05:48:38.022Z,99341.84
2022-09-06T05:49:40.521Z,99345.63
2022-09-06T05:50:42.819Z,99346.97
2022-09-06T05:51:49.813Z,99343.94
2022-09-06T05:52:54.119Z,99332.88
2022-09-06T05:53:56.705Z,99325.44
2022-09-06T05:54:59.034Z,99326.41
2022-09-06T05:56:01.482Z,99330.59
2022-09-06T05:57:03.982Z,99324.84
2022-09-06T05:58:06.340Z,99324.56
2022-09-06T05:59:08.754Z,99336.66
2022-09-06T06:00:12.315Z,99324.31
2022-09-06T06:01:18.929Z,99323.34
2022-09-06T06:02:22.515Z,99331.59
2022-09-06T06:03:25.005Z,99327.44
2022-09-06T06:04:27.339Z,99322.97
2022-09-06T06:05:29.734Z,99322.69
2022-09-06T06:06:34.426Z,99324.59
2022-09-06T06:07:36.840Z,99332.81
2022-09-06T06:08:39.726Z,99336.38
2022-09-06T06:09:42.232Z,99338.16
2022-09-06T06:10:44.647Z,99334.53
2022-09-06T06:11:47.041Z,99326.81
2022-09-06T06:12:49.982Z,99323.59
2022-09-06T06:13:54.256Z,99327.47
2022-09-06T06:14:56.569Z,99312.34
2022-09-06T06:15:59.401Z,99311.72
2022-09-06T06:17:02.663Z,99321.91
2022-09-06T06:18:05.396Z,99321.06
2022-09-06T06:19:08.219Z,99328.41
2022-09-06T06:20:11.414Z,99318.22
2022-09-06T06:21:16.259Z,99307.81
2022-09-06T06:22:19.095Z,99323.34
2022-09-06T06:23:22.335Z,99314.66
2022-09-06T06:24:25.959Z,99314.00
2022-09-06T06:25:29.915Z,99309.34
2022-09-06T06:26:35.127Z,99306.59
2022-09-06T06:27:37.877Z,99298.94
2022-09-06T06:28:41.279Z,99305.06
2022-09-06T06:29:43.962Z,99307.81
2022-09-06T06:30:46.839Z,99308.88
2022-09-06T06:31:49.530Z,99304.94
2022-09-06T06:32:52.230Z,99304.94
2022-09-06T06:33:55.286Z,99299.16
2022-09-06T06:34:58.090Z,99299.75
2022-09-06T06:36:05.523Z,99305.75
2022-09-06T06:37:07.911Z,99300.53
2022-09-06T06:38:10.257Z,99313.78
2022-09-06T06:39:13.198Z,99300.72
2022-09-06T06:40:16.879Z,99306.19
2022-09-06T06:41:24.112Z,99301.97
2022-09-06T06:42:26.855Z,99296.31
2022-09-06T06:43:38.752Z,99302.03
2022-09-06T06:44:41.710Z,99304.91
2022-09-06T06:45:50.075Z,99294.03
2022-09-06T06:46:52.971Z,99298.00
2022-09-06T06:47:55.527Z,99301.31
2022-09-06T06:48:58.417Z,99296.75
2022-09-06T06:50:01.482Z,99301.22
2022-09-06T06:51:04.132Z,99302.28
2022-09-06T06:52:07.014Z,99308.59
2022-09-06T06:53:09.472Z,99302.34
2022-09-06T06:54:11.988Z,99309.94
2022-09-06T06:55:15.119Z,99307.66
2022-09-06T06:56:19.845Z,99309.34
2022-09-06T06:57:22.515Z,99299.88
2022-09-06T06:58:25.199Z,99301.25
2022-09-06T06:59:27.976Z,99305.66
2022-09-06T07:00:30.430Z,99313.34
2022-09-06T07:01:35.180Z,99307.13
2022-09-06T07:02:37.804Z,99304.97
2022-09-06T07:03:40.218Z,99297.22
2022-09-06T07:04:42.751Z,99291.72
2022-09-06T07:08:33.404Z,99303.69
2022-09-06T07:10:59.575Z,99296.34
2022-09-06T07:12:02.165Z,99300.56
2022-09-06T07:13:05.010Z,99298.69
2022-09-06T07:14:07.402Z,99303.91
2022-09-06T07:15:09.965Z,99308.41
2022-09-06T07:16:15.551Z,99312.19
2022-09-06T07:17:18.043Z,99313.88
2022-09-06T07:18:20.398Z,99323.78
2022-09-06T07:22:11.826Z,99323.22
2022-09-06T07:24:39.404Z,99329.22
2022-09-06T07:25:44.414Z,99334.53
2022-09-06T07:28:09.334Z,99340.66
2022-09-06T07:29:11.746Z,99334.50
2022-09-06T07:30:14.323Z,99338.53
2022-09-06T07:32:39.104Z,99342.16
2022-09-06T07:33:41.540Z,99331.53
2022-09-06T07:34:44.163Z,99341.06
2022-09-06T07:36:00.374Z,99334.78
2022-09-06T07:37:02.808Z,99338.59
2022-09-06T07:38:06.471Z,99334.53
2022-09-06T07:39:09.206Z,99336.84
2022-09-06T07:40:11.728Z,99338.63
2022-09-06T07:41:14.189Z,99332.34
2022-09-06T07:42:16.605Z,99344.19
2022-09-06T07:43:18.893Z,99341.00
2022-09-06T07:44:21.415Z,99340.91
2022-09-06T07:45:24.464Z,99351.41
2022-09-06T07:46:26.978Z,99344.84
2022-09-06T07:48:51.950Z,99358.16
2022-09-06T07:51:19.650Z,99348.41
2022-09-06T07:54:12.791Z,99364.56
2022-09-06T07:55:18.334Z,99366.19
2022-09-06T07:56:22.526Z,99361.66
2022-09-06T07:57:24.954Z,99359.63
2022-09-06T07:58:29.018Z,99362.75
2022-09-06T07:59:31.563Z,99366.34
2022-09-06T08:00:34.057Z,99362.22
2022-09-06T08:01:39.539Z,99358.72
2022-09-06T08:02:42.011Z,99358.56
2022-09-06T08:03:45.772Z,99354.59
2022-09-06T08:04:51.524Z,99359.25
2022-09-06T08:06:10.561Z,99362.06
2022-09-06T08:09:58.231Z,99366.06
2022-09-06T08:11:24.116Z,99368.59
2022-09-06T08:12:27.842Z,99366.09
2022-09-06T08:13:30.341Z,99369.13
2022-09-06T08:14:33.646Z,99376.09
2022-09-06T08:15:35.997Z,99374.81
2022-09-06T08:16:39.253Z,99375.47
2022-09-06T08:17:41.802Z,99377.88
2022-09-06T08:18:44.444Z,99371.94
2022-09-06T08:19:46.939Z,99374.75
2022-09-06T08:20:49.242Z,99376.59
2022-09-06T08:21:55.032Z,99378.28
2022-09-06T08:22:57.292Z,99376.47
2022-09-06T08:24:01.617Z,99381.91
2022-09-06T08:25:04.158Z,99382.59
2022-09-06T08:26:06.529Z,99376.34
2022-09-06T08:27:08.894Z,99373.03
2022-09-06T08:28:11.345Z,99377.69
2022-09-06T08:29:14.315Z,99376.75
2022-09-06T08:30:16.772Z,99388.50
2022-09-06T08:31:19.715Z,99386.00
2022-09-06T08:32:22.064Z,99390.00
2022-09-06T08:33:25.647Z,99378.22
2022-09-06T08:34:28.142Z,99387.84
2022-09-06T08:35:30.567Z,99395.56
2022-09-06T08:36:33.941Z,99383.38
2022-09-06T08:37:37.106Z,99376.53
2022-09-06T08:38:41.421Z,99380.75
2022-09-06T08:39:43.946Z,99381.44
2022-09-06T08:40:46.407Z,99380.31
2022-09-06T08:42:00.208Z,99374.81
2022-09-06T08:43:23.070Z,99386.47
2022-09-06T08:44:55.532Z,99376.78
2022-09-06T08:46:19.270Z,99371.41
2022-09-06T08:47:40.582Z,99371.50
2022-09-06T08:48:43.815Z,99384.44
2022-09-06T08:49:54.651Z,99381.88
2022-09-06T08:51:23.470Z,99386.59
2022-09-06T08:53:16.156Z,99392.47
2022-09-06T08:54:36.898Z,99391.31
2022-09-06T08:55:43.267Z,99383.56
2022-09-06T08:57:31.253Z,99391.09
2022-09-06T08:59:05.280Z,99387.53
2022-09-06T09:00:12.520Z,99394.53
2022-09-06T09:01:19.539Z,99391.59
2022-09-06T09:02:22.361Z,99397.75
2022-09-06T09:03:36.851Z,99390.69
2022-09-06T09:04:53.385Z,99384.56
2022-09-06T09:05:56.521Z,99398.66
2022-09-06T09:07:06.955Z,99391.00
2022-09-06T09:08:32.975Z,99394.00
2022-09-06T09:09:36.011Z,99397.94
2022-09-06T09:10:46.064Z,99403.25
2022-09-06T09:11:51.459Z,99398.09
2022-09-06T09:12:54.549Z,99398.53
2022-09-06T09:14:04.110Z,99402.13
2022-09-06T09:15:10.678Z,99398.25
2022-09-06T09:16:18.229Z,99393.81
2022-09-06T09:17:29.236Z,99388.25
2022-09-06T09:18:36.968Z,99391.34
2022-09-06T09:19:41.631Z,99397.34
2022-09-06T09:20:44.212Z,99404.19
2022-09-06T09:21:47.070Z,99399.75
2022-09-06T09:22:49.698Z,99397.34
2022-09-06T09:23:55.636Z,99390.59
2022-09-06T09:24:59.997Z,99395.22
2022-09-06T09:26:07.819Z,99387.13
2022-09-06T09:27:12.665Z,99389.63
2022-09-06T09:28:20.365Z,99386.59
2022-09-06T09:29:27.507Z,99394.69
2022-09-06T09:30:50.057Z,99385.09
2022-09-06T09:31:54.701Z,99389.94
2022-09-06T09:32:57.256Z,99392.50
2022-09-06T09:34:02.793Z,99391.63
2022-09-06T09:35:21.849Z,99392.38
2022-09-06T09:36:24.383Z,99394.22
2022-09-06T09:38:52.937Z,99388.00
2022-09-06T09:39:57.924Z,99393.34
2022-09-06T09:41:05.438Z,99391.72
2022-09-06T09:42:09.398Z,99395.78
2022-09-06T09:43:16.876Z,99383.88
2022-09-06T09:44:44.849Z,99393.38
2022-09-06T09:46:13.166Z,99390.50
2022-09-06T09:47:28.642Z,99385.25
2022-09-06T09:48:31.362Z,99390.72
2022-09-06T09:49:35.090Z,99386.06
2022-09-06T09:50:37.468Z,99380.41
2022-09-06T09:51:46.574Z,99385.72
2022-09-06T09:52:49.045Z,99391.06
2022-09-06T09:54:05.382Z,99391.78
2022-09-06T09:55:10.803Z,99393.59
2022-09-06T09:56:15.686Z,99396.13
2022-09-06T09:57:19.410Z,99389.47
2022-09-06T09:58:31.365Z,99394.91
2022-09-06T09:59:36.455Z,99387.06
2022-09-06T10:00:40.497Z,99387.31
2022-09-06T10:01:42.950Z,99381.16
2022-09-06T10:02:45.357Z,99384.03
2022-09-06T10:05:12.924Z,99387.03
2022-09-06T10:07:47.322Z,99375.56
2022-09-06T10:08:49.984Z,99372.53
2022-09-06T10:10:04.953Z,99379.69
2022-09-06T10:11:07.514Z,99377.00
2022-09-06T10:12:35.885Z,99383.00
2022-09-06T10:13:39.229Z,99384.78
2022-09-06T10:14:44.634Z,99373.94
2022-09-06T10:15:48.442Z,99381.94
2022-09-06T10:16:53.913Z,99382.16
2022-09-06T10:17:58.379Z,99375.72
2022-09-06T10:19:23.388Z,99366.91
2022-09-06T10:20:49.590Z,99374.09
2022-09-06T10:22:00.117Z,99371.63
2022-09-06T10:25:11.035Z,99381.09
2022-09-06T10:26:13.763Z,99384.38
2022-09-06T10:27:25.703Z,99368.63
2022-09-06T10:28:32.235Z,99383.75
2022-09-06T10:29:45.055Z,99371.00
2022-09-06T10:30:59.802Z,99360.97
2022-09-06T10:32:21.414Z,99365.00
2022-09-06T10:33:33.483Z,99359.56
2022-09-06T10:34:53.611Z,99363.78
2022-09-06T10:36:00.735Z,99358.63
2022-09-06T10:37:30.626Z,99363.75
2022-09-06T10:38:48.342Z,99357.75
2022-09-06T10:40:03.079Z,99356.13
2022-09-06T10:41:30.896Z,99360.66
2022-09-06T10:42:54.054Z,99358.59
2022-09-06T10:44:14.812Z,99353.25
2022-09-06T10:45:41.684Z,99361.00
2022-09-06T10:46:45.829Z,99360.16
2022-09-06T10:47:59.533Z,99351.75
2022-09-06T10:49:02.176Z,99351.44
2022-09-06T10:50:06.231Z,99359.31
2022-09-06T10:51:22.680Z,99363.84
2022-09-06T10:52:41.713Z,99356.94
2022-09-06T10:53:57.230Z,99357.66
2022-09-06T10:55:04.943Z,99355.41
2022-09-06T10:56:13.813Z,99366.28
2022-09-06T11:00:28.114Z,99347.44
2022-09-06T11:01:37.724Z,99351.75
2022-09-06T11:06:20.723Z,99343.06
2022-09-06T11:09:22.948Z,99354.81
2022-09-06T11:10:37.939Z,99349.66
2022-09-06T11:11:54.506Z,99343.44
2022-09-06T11:13:20.613Z,99348.34
2022-09-06T11:14:27.624Z,99346.16
2022-09-06T11:15:43.132Z,99353.69
2022-09-06T11:16:57.992Z,99358.78
2022-09-06T11:18:33.573Z,99348.63
2022-09-06T11:20:10.153Z,99359.38
2022-09-06T11:21:19.638Z,99362.75
2022-09-06T11:23:01.450Z,99348.91
2022-09-06T11:24:13.655Z,99360.22
2022-09-06T11:25:22.261Z,99354.16
2022-09-06T11:26:36.670Z,99356.88
2022-09-06T11:27:42.520Z,99351.94
2022-09-06T11:28:48.997Z,99360.38
2022-09-06T11:29:56.460Z,99363.72
2022-09-06T11:30:59.216Z,99359.69
2022-09-06T11:32:20.326Z,99351.94
2022-09-06T11:33:31.645Z,99349.97
2022-09-06T11:34:35.289Z,99350.72
2022-09-06T11:35:39.721Z,99353.00
2022-09-06T11:36:50.979Z,99343.03
2022-09-06T11:38:00.531Z,99347.72
2022-09-06T11:39:06.482Z,99351.19
2022-09-06T11:40:32.626Z,99347.63
2022-09-06T11:41:39.656Z,99348.44
2022-09-06T11:43:03.039Z,99352.34
2022-09-06T11:44:07.408Z,99350.16
2022-09-06T11:45:21.093Z,99342.28
2022-09-06T11:46:35.564Z,99349.16
2022-09-06T11:47:49.227Z,99343.06
2022-09-06T11:49:32.684Z,99351.47
2022-09-06T11:50:53.456Z,99343.16
2022-09-06T11:51:56.006Z,99336.13
2022-09-06T11:53:12.756Z,99342.28
2022-09-06T11:54:15.287Z,99337.44
2022-09-06T11:55:22.703Z,99338.19
2022-09-06T11:56:32.698Z,99331.09
2022-09-06T11:57:35.320Z,99336.66
2022-09-06T11:58:40.327Z,99331.09
2022-09-06T11:59:45.739Z,99331.19
2022-09-06T12:01:15.157Z,99323.28
2022-09-06T12:02:39.196Z,99319.44
2022-09-06T12:05:07.349Z,99324.88
2022-09-06T12:06:16.855Z,99318.47
2022-09-06T12:07:19.662Z,99321.84
2022-09-06T12:08:33.638Z,99319.88
2022-09-06T12:09:44.280Z,99316.91
2022-09-06T12:10:59.744Z,99320.94
2022-09-06T12:12:03.517Z,99314.19
2022-09-06T12:13:39.617Z,99307.66
2022-09-06T12:14:46.793Z,99312.16
2022-09-06T12:15:54.877Z,99307.56
2022-09-06T12:17:05.087Z,99303.38
2022-09-06T12:18:07.736Z,99296.97
2022-09-06T12:19:44.865Z,99297.03
2022-09-06T12:20:53.227Z,99300.59
2022-09-06T12:21:55.538Z,99290.41
2022-09-06T12:22:58.043Z,99297.69
2022-09-06T12:24:02.074Z,99300.09
2022-09-06T12:25:36.798Z,99294.25
2022-09-06T12:26:55.328Z,99297.31
2022-09-06T12:28:04.122Z,99284.22
2022-09-06T12:29:10.902Z,99287.25
2022-09-06T12:30:31.090Z,99285.88
2022-09-06T12:31:44.309Z,99291.81
2022-09-06T12:32:49.532Z,99297.47
2022-09-06T12:33:52.586Z,99280.66
2022-09-06T12:36:30.555Z,99294.50
2022-09-06T12:37:48.974Z,99298.91
2022-09-06T12:38:58.577Z,99297.13
2022-09-06T12:40:01.727Z,99297.28
2022-09-06T12:41:04.662Z,99299.53
2022-09-06T12:42:12.136Z,99297.06
2022-09-06T12:43:16.945Z,99296.56
2022-09-06T12:44:29.060Z,99285.69
2022-09-06T12:45:31.708Z,99290.72
2022-09-06T12:46:35.120Z,99298.06
2022-09-06T12:47:40.057Z,99292.13
2022-09-06T12:48:44.613Z,99284.13
2022-09-06T12:49:47.279Z,99285.63
2022-09-06T12:51:04.916Z,99285.72
2022-09-06T12:52:25.407Z,99291.28
2022-09-06T12:53:31.520Z,99283.38
2022-09-06T12:54:33.874Z,99284.13
2022-09-06T12:55:38.484Z,99281.22
2022-09-06T12:56:40.864Z,99282.53
2022-09-06T12:57:54.955Z,99277.22
2022-09-06T12:59:20.268Z,99284.22
2022-09-06T13:00:25.483Z,99274.59
2022-09-06T13:01:34.750Z,99275.16
2022-09-06T13:02:52.868Z,99276.00
2022-09-06T13:03:55.586Z,99271.06
2022-09-06T13:05:07.465Z,99265.75
2022-09-06T13:06:16.251Z,99261.56
2022-09-06T13:07:22.503Z,99262.09
2022-09-06T13:08:38.665Z,99263.88
2022-09-06T13:09:46.890Z,99268.94
2022-09-06T13:10:49.248Z,99270.22
2022-09-06T13:11:52.852Z,99264.03
2022-09-06T13:12:58.418Z,99259.41
2022-09-06T13:14:13.815Z,99263.59
2022-09-06T13:15:35.089Z,99261.34
2022-09-06T13:16:43.973Z,99259.75
2022-09-06T13:17:47.148Z,99266.91
2022-09-06T13:18:49.593Z,99258.84
2022-09-06T13:19:51.983Z,99258.81
2022-09-06T13:21:14.163Z,99257.22
2022-09-06T13:22:38.596Z,99266.34
2022-09-06T13:23:50.340Z,99252.34
2022-09-06T13:24:56.458Z,99265.91
2022-09-06T13:25:58.823Z,99253.13
2022-09-06T13:27:21.532Z,99253.72
2022-09-06T13:28:31.822Z,99257.22
2022-09-06T13:29:34.116Z,99258.00
2022-09-06T13:30:49.055Z,99250.00
2022-09-06T13:31:56.949Z,99251.47
2022-09-06T13:33:00.260Z,99260.91
2022-09-06T13:34:02.613Z,99251.25
2022-09-06T13:35:05.132Z,99254.00
2022-09-06T13:36:13.384Z,99250.94
2022-09-06T13:37:39.495Z,99252.06
2022-09-06T13:38:43.394Z,99252.16
2022-09-06T13:39:46.200Z,99243.72
2022-09-06T13:41:11.593Z,99245.72
2022-09-06T13:42:30.824Z,99243.50
2022-09-06T13:43:43.937Z,99243.19
2022-09-06T13:44:46.457Z,99253.03
2022-09-06T13:45:48.783Z,99247.44
2022-09-06T13:46:55.253Z,99237.50
2022-09-06T13:48:13.204Z,99236.91
2022-09-06T13:49:20.348Z,99239.13
2022-09-06T13:50:27.692Z,99234.53